West Essex Park Conservancy

Temperature/Humidity/Waterlevel monitor

07-12 13:20     F   %    Z  mov    seq 
07-12 13:09,   94, 43,  2.7 145  38872
07-12 12:49,   92, 44,  2.9 145  37934
07-12 12:28,   96, 42,  2.5 145  36951
07-12 12:07,   98, 40,  2.7 145  35945
07-12 11:46,  100, 39,  3.1 145  34989
07-12 11:26,   99, 41,  2.9 145  34055
07-12 11:05,   99, 41,  2.3 145  33052
07-12 10:44,   98, 43,  2.7 145  32092
07-12 10:24,   97, 43,  2.5 145  31158
07-12 10:03,   98, 43,  2.3 145  30173
07-12 09:42,   96, 47,  1.9 145  29189
07-12 09:20,   93, 50,  2.3 145  28183
07-12 09:00,   93, 59,  1.7 145  27248
07-12 08:39,   92, 65,  1.9 145  26263
07-12 08:18,   88, 72,  1.7 145  25281
07-12 07:57,   84, 79,  0.9 145  24299
07-12 07:36,   79, 84,  0.3 145  23317
07-12 07:15,   74, 90,  0.0 145  22335
07-12 06:54,   70, 93,  0.0 145  21330
07-12 06:33,   65, 93,  0.0 145  20374
07-12 06:13,   64, 93,  0.0 145  19446
07-12 05:51,   64, 93,  0.0 145  18393
07-12 05:31,   64, 93,  0.0 145  17460
07-12 05:09,   64, 93,  0.0 145  16455
07-12 04:49,   64, 93,  0.0 145  15500
07-12 04:28,   64, 93,  0.0 145  14545
07-12 04:08,   64, 93,  0.0 145  13588
07-12 03:48,   64, 93,  0.0 145  12655
07-12 03:27,   65, 93,  0.0 145  11680
07-12 03:03,   65, 93,  0.0 145  10581
07-12 02:43,   65, 92,  0.0 145   9625
07-12 02:23,   66, 92,  0.0 145   8692
07-12 02:01,   66, 92,  0.0 145   7689
07-12 01:41,   66, 92,  0.0 145   6732
07-12 01:21,   66, 92,  0.0 145   5797
07-12 00:59,   67, 92,  0.0 145   4793
07-12 00:39,   67, 91,  0.0 145   3859
07-12 00:18,   67, 92,  0.0 145   2855
07-11 23:57,   68, 91,  0.0 145   1897
07-11 23:37,   68, 91,  0.0 145    941

Go to the West Essex Park Conservancy birding log .